Time,TemperatureF,DewpointF,PressureIn,WindDirection,WindDirectionDegrees,WindSpeedMPH,WindSpeedGustMPH,Humidity,HourlyPrecipIn,Conditions,Clouds,dailyrainin,SoftwareType,DateUTC
2013-04-06 00:00:00,51.0,47.9,30.03,NNW,334,0.0,0.0,89,0.00,,,0.15,Wunderground v.1.15,2013-04-06 04:00:00,
2013-04-06 00:01:00,51.0,48.2,30.03,NNW,334,0.0,0.0,90,0.00,,,0.15,Wunderground v.1.15,2013-04-06 04:01:00,
2013-04-06 00:03:00,51.0,48.2,30.03,NNW,334,0.0,0.0,90,0.00,,,0.15,Wunderground v.1.15,2013-04-06 04:03:00,
2013-04-06 00:09:00,50.8,48.0,30.03,NNW,334,0.0,0.0,90,0.00,,,0.15,Wunderground v.1.15,2013-04-06 04:09:00,
2013-04-06 00:14:00,50.8,48.0,30.03,NNW,334,0.0,0.0,90,0.00,,,0.15,Wunderground v.1.15,2013-04-06 04:14:00,
2013-04-06 00:19:00,50.7,47.9,30.03,NNW,334,0.0,0.0,90,0.00,,,0.15,Wunderground v.1.15,2013-04-06 04:19:00,
2013-04-06 00:25:00,50.5,47.7,30.03,NNW,334,0.0,0.0,90,0.00,,,0.15,Wunderground v.1.15,2013-04-06 04:25:00,
2013-04-06 00:31:00,50.4,47.9,30.03,NNW,334,0.0,0.0,91,0.00,,,0.15,Wunderground v.1.15,2013-04-06 04:31:00,
2013-04-06 00:37:00,50.2,47.7,30.03,NNW,334,0.0,0.0,91,0.00,,,0.15,Wunderground v.1.15,2013-04-06 04:37:00,
2013-04-06 00:42:00,50.1,47.6,30.03,NNW,334,0.0,0.0,91,0.00,,,0.15,Wunderground v.1.15,2013-04-06 04:42:00,
2013-04-06 00:48:00,49.9,47.4,30.03,NNW,334,0.0,0.0,91,0.00,,,0.15,Wunderground v.1.15,2013-04-06 04:48:00,
2013-04-06 00:54:00,49.8,47.3,30.03,NNW,334,0.0,0.0,91,0.00,,,0.15,Wunderground v.1.15,2013-04-06 04:54:00,
2013-04-06 00:59:00,49.6,47.1,30.03,NNW,334,0.0,0.0,91,0.00,,,0.15,Wunderground v.1.15,2013-04-06 04:59:00,
2013-04-06 01:05:00,49.5,47.3,30.03,NNW,334,0.0,0.0,92,0.00,,,0.00,Wunderground v.1.15,2013-04-06 05:05:00,
2013-04-06 01:12:00,49.4,47.2,30.03,NNW,334,0.0,0.0,92,0.00,,,0.00,Wunderground v.1.15,2013-04-06 05:12:00,
2013-04-06 01:18:00,49.2,47.0,30.03,NNW,334,0.0,0.0,92,0.00,,,0.00,Wunderground v.1.15,2013-04-06 05:18:00,
2013-04-06 01:27:00,48.9,46.7,30.03,NNW,334,0.0,0.0,92,0.00,,,0.00,Wunderground v.1.15,2013-04-06 05:27:00,
2013-04-06 01:33:00,48.8,46.6,30.03,NNW,334,0.0,0.0,92,0.00,,,0.00,Wunderground v.1.15,2013-04-06 05:33:00,
2013-04-06 01:39:00,48.6,46.7,30.03,NNW,334,0.0,0.0,93,0.00,,,0.00,Wunderground v.1.15,2013-04-06 05:39:00,
2013-04-06 01:44:00,48.5,46.6,30.03,NNW,334,0.0,0.0,93,0.00,,,0.00,Wunderground v.1.15,2013-04-06 05:44:00,
2013-04-06 01:49:00,48.3,46.1,30.03,NNW,334,0.0,0.0,92,0.00,,,0.00,Wunderground v.1.15,2013-04-06 05:49:00,
2013-04-06 01:55:00,48.2,46.3,30.03,NNW,334,0.0,0.0,93,0.00,,,0.00,Wunderground v.1.15,2013-04-06 05:55:00,
2013-04-06 02:00:00,48.0,46.1,30.03,NNW,334,0.0,0.0,93,0.00,,,0.00,Wunderground v.1.15,2013-04-06 06:00:00,
2013-04-06 02:05:00,47.9,46.0,30.03,NNW,334,0.0,0.0,93,0.00,,,0.00,Wunderground v.1.15,2013-04-06 06:05:00,
2013-04-06 02:10:00,47.7,45.8,30.03,NNW,334,0.0,0.0,93,0.00,,,0.00,Wunderground v.1.15,2013-04-06 06:10:00,
2013-04-06 02:15:00,47.6,45.7,30.04,NNW,334,0.0,0.0,93,0.00,,,0.00,Wunderground v.1.15,2013-04-06 06:15:00,
2013-04-06 02:20:00,47.4,45.5,30.04,NNW,334,0.0,0.0,93,0.00,,,0.00,Wunderground v.1.15,2013-04-06 06:20:00,
2013-04-06 02:25:00,47.4,45.5,30.04,NNW,334,0.0,0.0,93,0.00,,,0.00,Wunderground v.1.15,2013-04-06 06:25:00,
2013-04-06 02:30:00,47.3,45.7,30.04,NNW,334,0.0,0.0,94,0.00,,,0.00,Wunderground v.1.15,2013-04-06 06:30:00,
2013-04-06 02:35:00,47.1,45.5,30.04,NNW,334,0.0,0.0,94,0.00,,,0.00,Wunderground v.1.15,2013-04-06 06:35:00,
2013-04-06 02:40:00,47.1,45.5,30.04,NNW,334,0.0,0.0,94,0.00,,,0.00,Wunderground v.1.15,2013-04-06 06:40:00,
2013-04-06 02:47:00,47.0,45.4,30.04,NNW,334,0.0,0.0,94,0.00,,,0.00,Wunderground v.1.15,2013-04-06 06:47:00,
2013-04-06 02:52:00,46.8,45.2,30.04,NNW,334,0.0,0.0,94,0.00,,,0.00,Wunderground v.1.15,2013-04-06 06:52:00,
2013-04-06 02:57:00,46.8,45.2,30.04,NNW,334,0.0,0.0,94,0.00,,,0.00,Wunderground v.1.15,2013-04-06 06:57:00,
2013-04-06 03:02:00,46.7,45.1,30.05,NNW,334,0.0,0.0,94,0.00,,,0.00,Wunderground v.1.15,2013-04-06 07:02:00,
2013-04-06 03:07:00,46.7,45.3,30.05,NNW,334,0.0,0.0,95,0.00,,,0.00,Wunderground v.1.15,2013-04-06 07:07:00,
2013-04-06 03:12:00,46.5,45.1,30.05,NNW,334,0.0,0.0,95,0.00,,,0.00,Wunderground v.1.15,2013-04-06 07:12:00,
2013-04-06 03:17:00,46.5,45.1,30.05,NNW,334,0.0,0.0,95,0.00,,,0.00,Wunderground v.1.15,2013-04-06 07:17:00,
2013-04-06 03:22:00,46.4,45.0,30.05,NNW,334,0.0,0.0,95,0.00,,,0.00,Wunderground v.1.15,2013-04-06 07:22:00,
2013-04-06 03:27:00,46.4,45.0,30.05,NNW,334,0.0,0.0,95,0.00,,,0.00,Wunderground v.1.15,2013-04-06 07:27:00,
2013-04-06 03:32:00,46.4,45.0,30.06,NNW,334,0.0,0.0,95,0.00,,,0.00,Wunderground v.1.15,2013-04-06 07:32:00,
2013-04-06 03:37:00,46.4,45.0,30.06,NNW,334,0.0,0.0,95,0.00,,,0.00,Wunderground v.1.15,2013-04-06 07:37:00,
2013-04-06 03:42:00,46.2,45.1,30.06,NNW,334,0.0,0.0,96,0.00,,,0.00,Wunderground v.1.15,2013-04-06 07:42:00,
2013-04-06 03:47:00,46.2,45.1,30.06,NNW,334,0.0,0.0,96,0.00,,,0.00,Wunderground v.1.15,2013-04-06 07:47:00,
2013-04-06 03:53:00,46.2,45.1,30.06,NNW,334,0.0,0.0,96,0.00,,,0.00,Wunderground v.1.15,2013-04-06 07:53:00,
2013-04-06 03:58:00,46.2,45.1,30.06,NNW,334,0.0,0.0,96,0.00,,,0.00,Wunderground v.1.15,2013-04-06 07:58:00,
2013-04-06 04:03:00,46.2,45.1,30.06,NNW,334,0.0,0.0,96,0.00,,,0.00,Wunderground v.1.15,2013-04-06 08:03:00,
2013-04-06 04:08:00,46.2,45.1,30.06,NNW,334,0.0,0.0,96,0.00,,,0.00,Wunderground v.1.15,2013-04-06 08:08:00,
2013-04-06 04:13:00,46.2,45.1,30.06,NNW,334,0.0,0.0,96,0.00,,,0.00,Wunderground v.1.15,2013-04-06 08:13:00,
2013-04-06 04:18:00,46.2,45.1,30.07,NNW,334,0.0,0.0,96,0.00,,,0.00,Wunderground v.1.15,2013-04-06 08:18:00,
2013-04-06 04:23:00,46.2,45.1,30.07,NNW,334,0.0,0.0,96,0.00,,,0.00,Wunderground v.1.15,2013-04-06 08:23:00,
2013-04-06 04:28:00,46.1,45.0,30.07,NNW,334,0.0,0.0,96,0.00,,,0.00,Wunderground v.1.15,2013-04-06 08:28:00,
2013-04-06 04:33:00,46.1,45.0,30.07,NNW,334,0.0,0.0,96,0.00,,,0.00,Wunderground v.1.15,2013-04-06 08:33:00,
2013-04-06 04:38:00,46.1,45.0,30.07,NNW,334,0.0,0.0,96,0.00,,,0.00,Wunderground v.1.15,2013-04-06 08:38:00,
2013-04-06 04:43:00,46.1,45.3,30.07,NNW,334,0.0,0.0,97,0.00,,,0.00,Wunderground v.1.15,2013-04-06 08:43:00,
2013-04-06 04:48:00,46.1,45.0,30.07,NNW,334,0.0,0.0,96,0.00,,,0.00,Wunderground v.1.15,2013-04-06 08:48:00,
2013-04-06 04:53:00,46.1,45.0,30.07,NNW,334,0.0,0.0,96,0.00,,,0.00,Wunderground v.1.15,2013-04-06 08:53:00,
2013-04-06 04:59:00,46.1,45.0,30.07,NNW,334,0.0,0.0,96,0.00,,,0.00,Wunderground v.1.15,2013-04-06 08:59:00,
2013-04-06 05:04:00,46.0,44.9,30.07,NNW,334,0.0,0.0,96,0.00,,,0.00,Wunderground v.1.15,2013-04-06 09:04:00,
2013-04-06 05:09:00,46.0,44.9,30.07,NNW,334,0.0,0.0,96,0.00,,,0.00,Wunderground v.1.15,2013-04-06 09:09:00,
2013-04-06 05:14:00,46.0,44.9,30.08,NNW,334,0.0,0.0,96,0.00,,,0.00,Wunderground v.1.15,2013-04-06 09:14:00,
2013-04-06 05:19:00,45.8,45.0,30.08,NNW,334,0.0,0.0,97,0.00,,,0.00,Wunderground v.1.15,2013-04-06 09:19:00,
2013-04-06 05:24:00,45.8,44.7,30.08,NNW,334,0.0,0.0,96,0.00,,,0.00,Wunderground v.1.15,2013-04-06 09:24:00,
2013-04-06 05:29:00,45.7,44.6,30.09,NNW,334,0.0,0.0,96,0.00,,,0.00,Wunderground v.1.15,2013-04-06 09:29:00,
2013-04-06 05:35:00,45.5,44.4,30.09,NNW,334,0.0,0.0,96,0.00,,,0.00,Wunderground v.1.15,2013-04-06 09:35:00,
2013-04-06 05:40:00,45.5,44.4,30.09,NNW,334,0.0,0.0,96,0.00,,,0.00,Wunderground v.1.15,2013-04-06 09:40:00,
2013-04-06 05:45:00,45.4,44.3,30.09,NNW,334,0.0,0.0,96,0.00,,,0.00,Wunderground v.1.15,2013-04-06 09:45:00,
2013-04-06 05:50:00,45.2,44.1,30.09,NNW,334,0.0,0.0,96,0.00,,,0.00,Wunderground v.1.15,2013-04-06 09:50:00,
2013-04-06 05:55:00,45.2,44.1,30.09,NNW,334,0.0,0.0,96,0.00,,,0.00,Wunderground v.1.15,2013-04-06 09:55:00,
2013-04-06 06:01:00,45.1,44.0,30.10,NNW,334,0.0,0.0,96,0.00,,,0.00,Wunderground v.1.15,2013-04-06 10:01:00,
2013-04-06 06:06:00,45.1,44.0,30.10,NNW,334,0.0,0.0,96,0.00,,,0.00,Wunderground v.1.15,2013-04-06 10:06:00,
2013-04-06 06:12:00,44.9,43.8,30.10,NNW,334,0.0,0.0,96,0.00,,,0.00,Wunderground v.1.15,2013-04-06 10:12:00,
2013-04-06 06:17:00,44.9,43.8,30.10,NNW,334,0.0,0.0,96,0.00,,,0.00,Wunderground v.1.15,2013-04-06 10:17:00,
2013-04-06 06:22:00,44.9,44.1,30.10,NNW,334,0.0,0.0,97,0.00,,,0.00,Wunderground v.1.15,2013-04-06 10:22:00,
2013-04-06 06:27:00,44.9,44.1,30.10,NNW,334,0.0,0.0,97,0.00,,,0.00,Wunderground v.1.15,2013-04-06 10:27:00,
2013-04-06 06:32:00,44.9,44.1,30.11,NNW,334,0.0,0.0,97,0.00,,,0.00,Wunderground v.1.15,2013-04-06 10:32:00,
2013-04-06 06:37:00,44.9,44.1,30.11,NNW,334,0.0,0.0,97,0.00,,,0.00,Wunderground v.1.15,2013-04-06 10:37:00,
2013-04-06 06:42:00,44.8,44.0,30.11,NNW,334,0.0,0.0,97,0.00,,,0.00,Wunderground v.1.15,2013-04-06 10:42:00,
2013-04-06 06:47:00,44.8,44.0,30.12,NNW,334,0.0,0.0,97,0.00,,,0.00,Wunderground v.1.15,2013-04-06 10:47:00,
2013-04-06 06:52:00,44.8,44.0,30.12,NNW,334,0.0,0.0,97,0.00,,,0.00,Wunderground v.1.15,2013-04-06 10:52:00,
2013-04-06 06:57:00,44.8,44.0,30.12,NNW,334,0.0,0.0,97,0.00,,,0.00,Wunderground v.1.15,2013-04-06 10:57:00,
2013-04-06 07:02:00,44.8,44.0,30.12,NNW,334,0.0,0.0,97,0.00,,,0.00,Wunderground v.1.15,2013-04-06 11:02:00,
2013-04-06 07:07:00,44.8,44.0,30.12,NNW,334,0.0,0.0,97,0.00,,,0.00,Wunderground v.1.15,2013-04-06 11:07:00,
2013-04-06 07:12:00,44.8,44.0,30.12,NNW,334,0.0,0.0,97,0.00,,,0.00,Wunderground v.1.15,2013-04-06 11:12:00,
2013-04-06 07:17:00,44.8,44.0,30.13,NNW,334,0.0,0.0,97,0.00,,,0.00,Wunderground v.1.15,2013-04-06 11:17:00,
2013-04-06 07:22:00,44.9,44.4,30.13,NNW,334,0.0,0.0,98,0.00,,,0.00,Wunderground v.1.15,2013-04-06 11:22:00,
2013-04-06 07:27:00,44.9,44.4,30.13,NNW,334,0.0,0.0,98,0.00,,,0.00,Wunderground v.1.15,2013-04-06 11:27:00,
2013-04-06 07:32:00,44.9,44.4,30.14,NNW,334,0.0,0.0,98,0.00,,,0.00,Wunderground v.1.15,2013-04-06 11:32:00,
2013-04-06 07:33:00,45.1,44.6,30.14,NNW,334,0.0,0.0,98,0.00,,,0.00,Wunderground v.1.15,2013-04-06 11:33:00,
2013-04-06 07:38:00,45.2,44.7,30.14,NNW,334,0.0,0.0,98,0.00,,,0.00,Wunderground v.1.15,2013-04-06 11:38:00,
2013-04-06 07:43:00,45.2,44.7,30.14,NNW,334,0.0,0.0,98,0.00,,,0.00,Wunderground v.1.15,2013-04-06 11:43:00,
2013-04-06 07:48:00,45.4,44.9,30.14,NNW,334,0.0,0.0,98,0.00,,,0.00,Wunderground v.1.15,2013-04-06 11:48:00,
2013-04-06 07:53:00,45.5,45.2,30.14,NNW,334,0.0,0.0,99,0.00,,,0.00,Wunderground v.1.15,2013-04-06 11:53:00,
2013-04-06 07:58:00,46.0,46.0,30.14,NNW,334,0.0,0.0,100,0.00,,,0.00,Wunderground v.1.15,2013-04-06 11:58:00,
2013-04-06 08:04:00,47.0,47.0,30.14,NNW,334,0.0,0.0,100,0.00,,,0.00,Wunderground v.1.15,2013-04-06 12:04:00,
2013-04-06 08:09:00,47.9,47.9,30.14,NNW,334,0.0,0.0,100,0.00,,,0.00,Wunderground v.1.15,2013-04-06 12:09:00,
2013-04-06 08:15:00,48.8,48.8,30.14,NNW,334,0.0,0.0,100,0.00,,,0.00,Wunderground v.1.15,2013-04-06 12:15:00,
2013-04-06 08:20:00,49.6,49.6,30.14,NNW,334,0.0,0.0,100,0.00,,,0.00,Wunderground v.1.15,2013-04-06 12:20:00,
2013-04-06 08:25:00,50.4,50.4,30.14,North,6,0.0,0.0,100,0.00,,,0.00,Wunderground v.1.15,2013-04-06 12:25:00,
2013-04-06 08:30:00,51.0,50.7,30.15,North,3,0.0,0.0,99,0.00,,,0.00,Wunderground v.1.15,2013-04-06 12:30:00,
2013-04-06 08:35:00,51.4,50.9,30.15,East,84,0.0,1.0,98,0.00,,,0.00,Wunderground v.1.15,2013-04-06 12:35:00,
2013-04-06 08:40:00,52.0,50.9,30.15,East,91,1.0,1.0,96,0.00,,,0.00,Wunderground v.1.15,2013-04-06 12:40:00,
2013-04-06 08:45:00,52.5,51.1,30.15,East,91,0.0,1.0,95,0.00,,,0.00,Wunderground v.1.15,2013-04-06 12:45:00,
2013-04-06 08:50:00,53.2,51.2,30.15,East,91,0.0,0.0,93,0.00,,,0.00,Wunderground v.1.15,2013-04-06 12:50:00,
2013-04-06 08:55:00,53.6,50.7,30.15,North,349,0.0,2.0,90,0.00,,,0.00,Wunderground v.1.15,2013-04-06 12:55:00,
2013-04-06 09:00:00,54.4,50.9,30.15,East,81,0.0,0.0,88,0.00,,,0.00,Wunderground v.1.15,2013-04-06 13:00:00,
2013-04-06 09:05:00,55.0,50.6,30.15,East,84,0.0,1.0,85,0.00,,,0.00,Wunderground v.1.15,2013-04-06 13:05:00,
2013-04-06 09:11:00,55.7,50.6,30.15,WNW,291,0.0,0.0,83,0.00,,,0.00,Wunderground v.1.15,2013-04-06 13:11:00,
2013-04-06 09:16:00,56.3,50.5,30.16,WSW,243,1.0,2.0,81,0.00,,,0.00,Wunderground v.1.15,2013-04-06 13:16:00,
2013-04-06 09:21:00,56.9,50.5,30.16,ESE,111,0.0,3.0,79,0.00,,,0.00,Wunderground v.1.15,2013-04-06 13:21:00,
2013-04-06 09:26:00,57.5,49.6,30.16,NW,313,1.0,3.0,75,0.00,,,0.00,Wunderground v.1.15,2013-04-06 13:26:00,
2013-04-06 09:32:00,58.0,49.8,30.16,SE,133,0.0,2.0,74,0.00,,,0.00,Wunderground v.1.15,2013-04-06 13:32:00,
2013-04-06 09:37:00,58.7,50.1,30.16,SE,135,0.0,3.0,73,0.00,,,0.00,Wunderground v.1.15,2013-04-06 13:37:00,
2013-04-06 09:42:00,59.2,49.8,30.16,WNW,300,0.0,5.0,71,0.00,,,0.00,Wunderground v.1.15,2013-04-06 13:42:00,
2013-04-06 09:47:00,59.8,49.6,30.17,WNW,298,0.0,5.0,69,0.00,,,0.00,Wunderground v.1.15,2013-04-06 13:47:00,
2013-04-06 09:53:00,60.2,50.0,30.17,NW,304,0.0,1.0,69,0.00,,,0.00,Wunderground v.1.15,2013-04-06 13:53:00,
2013-04-06 09:58:00,60.7,50.1,30.17,SE,133,1.0,7.0,68,0.00,,,0.00,Wunderground v.1.15,2013-04-06 13:58:00,
2013-04-06 10:03:00,61.2,50.6,30.17,ESE,119,2.0,5.0,68,0.00,,,0.00,Wunderground v.1.15,2013-04-06 14:03:00,
2013-04-06 10:08:00,61.5,50.8,30.17,SSE,160,1.0,5.0,68,0.00,,,0.00,Wunderground v.1.15,2013-04-06 14:08:00,
2013-04-06 10:13:00,62.0,50.9,30.17,SE,130,0.0,5.0,67,0.00,,,0.00,Wunderground v.1.15,2013-04-06 14:13:00,
2013-04-06 10:19:00,62.6,51.1,30.17,ESE,102,3.0,5.0,66,0.00,,,0.00,Wunderground v.1.15,2013-04-06 14:19:00,
2013-04-06 10:24:00,63.2,50.8,30.17,WNW,301,0.0,3.0,64,0.00,,,0.00,Wunderground v.1.15,2013-04-06 14:24:00,
2013-04-06 10:29:00,63.9,51.9,30.17,SSE,160,0.0,3.0,65,0.00,,,0.00,Wunderground v.1.15,2013-04-06 14:29:00,
2013-04-06 10:34:00,64.3,51.9,30.18,SE,142,0.0,4.0,64,0.00,,,0.00,Wunderground v.1.15,2013-04-06 14:34:00,
2013-04-06 10:39:00,64.8,51.5,30.18,SSE,159,0.0,4.0,62,0.00,,,0.00,Wunderground v.1.15,2013-04-06 14:39:00,
2013-04-06 10:44:00,65.2,51.0,30.18,NW,317,0.0,3.0,60,0.00,,,0.00,Wunderground v.1.15,2013-04-06 14:44:00,
2013-04-06 10:49:00,65.3,50.6,30.18,WSW,250,0.0,3.0,59,0.00,,,0.00,Wunderground v.1.15,2013-04-06 14:49:00,
2013-04-06 10:54:00,65.6,50.4,30.18,ESE,113,6.0,6.0,58,0.00,,,0.00,Wunderground v.1.15,2013-04-06 14:54:00,
2013-04-06 11:00:00,66.0,51.3,30.18,SW,225,0.0,1.0,59,0.00,,,0.00,Wunderground v.1.15,2013-04-06 15:00:00,
2013-04-06 11:05:00,66.4,50.7,30.18,WNW,298,0.0,2.0,57,0.00,,,0.00,Wunderground v.1.15,2013-04-06 15:05:00,
2013-04-06 11:10:00,66.8,50.1,30.18,ESE,112,5.0,10.0,55,0.00,,,0.00,Wunderground v.1.15,2013-04-06 15:10:00,
2013-04-06 11:15:00,66.9,49.2,30.19,SE,125,1.0,10.0,53,0.00,,,0.00,Wunderground v.1.15,2013-04-06 15:15:00,
2013-04-06 11:20:00,67.3,49.1,30.19,ESE,112,7.0,7.0,52,0.00,,,0.00,Wunderground v.1.15,2013-04-06 15:20:00,
2013-04-06 11:25:00,67.6,49.9,30.19,West,270,1.0,7.0,53,0.00,,,0.00,Wunderground v.1.15,2013-04-06 15:25:00,
2013-04-06 11:30:00,67.8,47.9,30.19,SE,129,2.0,2.0,49,0.00,,,0.00,Wunderground v.1.15,2013-04-06 15:30:00,
2013-04-06 11:36:00,68.3,49.5,30.19,ENE,71,1.0,3.0,51,0.00,,,0.00,Wunderground v.1.15,2013-04-06 15:36:00,
2013-04-06 11:41:00,68.9,48.9,30.19,SE,143,2.0,6.0,49,0.00,,,0.00,Wunderground v.1.15,2013-04-06 15:41:00,
2013-04-06 11:46:00,68.9,46.1,30.18,ESE,102,1.0,8.0,44,0.00,,,0.00,Wunderground v.1.15,2013-04-06 15:46:00,
2013-04-06 11:51:00,69.1,46.3,30.18,ENE,71,3.0,6.0,44,0.00,,,0.00,Wunderground v.1.15,2013-04-06 15:51:00,
2013-04-06 11:57:00,69.4,42.0,30.18,South,169,1.0,8.0,37,0.00,,,0.00,Wunderground v.1.15,2013-04-06 15:57:00,
2013-04-06 12:02:00,69.8,40.9,30.18,East,81,6.0,7.0,35,0.00,,,0.00,Wunderground v.1.15,2013-04-06 16:02:00,
2013-04-06 12:07:00,69.8,36.9,30.18,ESE,119,5.0,10.0,30,0.00,,,0.00,Wunderground v.1.15,2013-04-06 16:07:00,
2013-04-06 12:13:00,69.9,37.0,30.18,West,273,2.0,8.0,30,0.00,,,0.00,Wunderground v.1.15,2013-04-06 16:13:00,
2013-04-06 12:19:00,70.3,38.2,30.19,WNW,287,1.0,8.0,31,0.00,,,0.00,Wunderground v.1.15,2013-04-06 16:19:00,
2013-04-06 12:24:00,70.8,38.7,30.19,SE,125,6.0,8.0,31,0.00,,,0.00,Wunderground v.1.15,2013-04-06 16:24:00,
2013-04-06 12:29:00,71.1,38.1,30.19,ENE,60,5.0,8.0,30,0.00,,,0.00,Wunderground v.1.15,2013-04-06 16:29:00,
2013-04-06 12:34:00,71.3,36.5,30.19,East,97,2.0,11.0,28,0.00,,,0.00,Wunderground v.1.15,2013-04-06 16:34:00,
2013-04-06 12:39:00,71.3,39.1,30.19,ESE,122,2.0,11.0,31,0.00,,,0.00,Wunderground v.1.15,2013-04-06 16:39:00,
2013-04-06 12:44:00,71.3,37.4,30.19,East,101,1.0,9.0,29,0.00,,,0.00,Wunderground v.1.15,2013-04-06 16:44:00,
2013-04-06 12:49:00,70.9,37.0,30.19,East,98,6.0,10.0,29,0.00,,,0.00,Wunderground v.1.15,2013-04-06 16:49:00,
2013-04-06 12:55:00,70.6,36.8,30.19,SW,228,0.0,7.0,29,0.00,,,0.00,Wunderground v.1.15,2013-04-06 16:55:00,
2013-04-06 13:00:00,70.8,36.1,30.19,South,170,1.0,3.0,28,0.00,,,0.00,Wunderground v.1.15,2013-04-06 17:00:00,
2013-04-06 13:05:00,70.6,35.9,30.19,South,170,2.0,11.0,28,0.00,,,0.00,Wunderground v.1.15,2013-04-06 17:05:00,
2013-04-06 13:10:00,70.9,36.1,30.19,WNW,293,1.0,8.0,28,0.00,,,0.00,Wunderground v.1.15,2013-04-06 17:10:00,
2013-04-06 13:15:00,71.3,36.5,30.19,South,188,3.0,8.0,28,0.00,,,0.00,Wunderground v.1.15,2013-04-06 17:15:00,
2013-04-06 13:20:00,71.3,36.5,30.19,SE,143,5.0,10.0,28,0.00,,,0.00,Wunderground v.1.15,2013-04-06 17:20:00,
2013-04-06 13:25:00,70.9,36.1,30.19,SSE,156,7.0,12.0,28,0.00,,,0.00,Wunderground v.1.15,2013-04-06 17:25:00,
2013-04-06 13:30:00,70.6,35.9,30.19,ESE,122,5.0,10.0,28,0.00,,,0.00,Wunderground v.1.15,2013-04-06 17:30:00,
2013-04-06 13:35:00,70.4,35.7,30.19,SW,225,1.0,10.0,28,0.00,,,0.00,Wunderground v.1.15,2013-04-06 17:35:00,
2013-04-06 13:40:00,70.3,35.6,30.19,SSE,159,3.0,12.0,28,0.00,,,0.00,Wunderground v.1.15,2013-04-06 17:40:00,
2013-04-06 13:45:00,70.3,38.2,30.19,SSE,149,3.0,13.0,31,0.00,,,0.00,Wunderground v.1.15,2013-04-06 17:45:00,
2013-04-06 13:50:00,69.9,36.2,30.19,East,95,7.0,10.0,29,0.00,,,0.00,Wunderground v.1.15,2013-04-06 17:50:00,
2013-04-06 13:55:00,69.9,40.2,30.19,NW,310,0.0,10.0,34,0.00,,,0.00,Wunderground v.1.15,2013-04-06 17:55:00,
2013-04-06 14:01:00,70.3,42.1,30.19,South,184,7.0,7.0,36,0.00,,,0.00,Wunderground v.1.15,2013-04-06 18:01:00,
2013-04-06 14:06:00,70.1,44.6,30.19,WNW,289,2.0,10.0,40,0.00,,,0.00,Wunderground v.1.15,2013-04-06 18:06:00,
2013-04-06 14:11:00,69.9,43.8,30.19,East,95,3.0,6.0,39,0.00,,,0.00,Wunderground v.1.15,2013-04-06 18:11:00,
2013-04-06 14:16:00,69.6,45.5,30.19,South,174,1.0,12.0,42,0.00,,,0.00,Wunderground v.1.15,2013-04-06 18:16:00,
2013-04-06 14:21:00,68.9,44.9,30.19,SE,126,2.0,7.0,42,0.00,,,0.00,Wunderground v.1.15,2013-04-06 18:21:00,
2013-04-06 14:26:00,68.3,44.9,30.19,SSW,194,7.0,11.0,43,0.00,,,0.00,Wunderground v.1.15,2013-04-06 18:26:00,
2013-04-06 14:31:00,67.9,45.8,30.19,ESE,115,12.0,12.0,45,0.00,,,0.00,Wunderground v.1.15,2013-04-06 18:31:00,
2013-04-06 14:36:00,67.6,45.5,30.19,SE,125,10.0,12.0,45,0.00,,,0.00,Wunderground v.1.15,2013-04-06 18:36:00,
2013-04-06 14:41:00,67.6,47.2,30.19,South,171,6.0,11.0,48,0.00,,,0.00,Wunderground v.1.15,2013-04-06 18:41:00,
2013-04-06 14:46:00,67.6,46.6,30.18,ESE,116,6.0,14.0,47,0.00,,,0.00,Wunderground v.1.15,2013-04-06 18:46:00,
2013-04-06 14:51:00,67.4,47.0,30.18,SSE,149,6.0,8.0,48,0.00,,,0.00,Wunderground v.1.15,2013-04-06 18:51:00,
2013-04-06 14:56:00,67.3,45.8,30.18,SW,231,2.0,12.0,46,0.00,,,0.00,Wunderground v.1.15,2013-04-06 18:56:00,
2013-04-06 15:01:00,67.1,44.4,30.18,ESE,121,3.0,13.0,44,0.00,,,0.00,Wunderground v.1.15,2013-04-06 19:01:00,
2013-04-06 15:07:00,66.8,47.0,30.18,ESE,106,2.0,13.0,49,0.00,,,0.00,Wunderground v.1.15,2013-04-06 19:07:00,
2013-04-06 15:12:00,66.9,46.0,30.18,SE,145,7.0,8.0,47,0.00,,,0.00,Wunderground v.1.15,2013-04-06 19:12:00,
2013-04-06 15:17:00,66.8,44.8,30.18,East,91,3.0,13.0,45,0.00,,,0.00,Wunderground v.1.15,2013-04-06 19:17:00,
2013-04-06 15:22:00,66.8,45.9,30.18,ESE,106,2.0,5.0,47,0.00,,,0.00,Wunderground v.1.15,2013-04-06 19:22:00,
2013-04-06 15:27:00,67.1,45.0,30.18,SW,215,0.0,13.0,45,0.00,,,0.00,Wunderground v.1.15,2013-04-06 19:27:00,
2013-04-06 15:32:00,67.4,45.9,30.18,NW,318,1.0,5.0,46,0.00,,,0.00,Wunderground v.1.15,2013-04-06 19:32:00,
2013-04-06 15:37:00,67.6,45.5,30.18,East,94,6.0,7.0,45,0.00,,,0.00,Wunderground v.1.15,2013-04-06 19:37:00,
2013-04-06 15:42:00,67.6,45.5,30.18,SSE,149,1.0,10.0,45,0.00,,,0.00,Wunderground v.1.15,2013-04-06 19:42:00,
2013-04-06 15:47:00,67.6,44.9,30.18,SSE,159,4.0,10.0,44,0.00,,,0.00,Wunderground v.1.15,2013-04-06 19:47:00,
2013-04-06 15:52:00,67.4,44.1,30.18,SSW,198,2.0,6.0,43,0.00,,,0.00,Wunderground v.1.15,2013-04-06 19:52:00,
2013-04-06 15:57:00,67.3,42.8,30.18,SSE,157,10.0,11.0,41,0.00,,,0.00,Wunderground v.1.15,2013-04-06 19:57:00,
2013-04-06 16:02:00,66.6,43.4,30.18,East,88,1.0,5.0,43,0.00,,,0.00,Wunderground v.1.15,2013-04-06 20:02:00,
2013-04-06 16:07:00,66.4,42.6,30.18,SSE,150,6.0,13.0,42,0.00,,,0.00,Wunderground v.1.15,2013-04-06 20:07:00,
2013-04-06 16:12:00,66.3,43.7,30.18,SE,139,2.0,12.0,44,0.00,,,0.00,Wunderground v.1.15,2013-04-06 20:12:00,
2013-04-06 16:17:00,66.3,41.2,30.17,SSE,149,2.0,12.0,40,0.00,,,0.00,Wunderground v.1.15,2013-04-06 20:17:00,
2013-04-06 16:22:00,66.4,44.4,30.17,ESE,113,0.0,6.0,45,0.00,,,0.00,Wunderground v.1.15,2013-04-06 20:22:00,
2013-04-06 16:27:00,66.4,47.2,30.17,SE,129,7.0,11.0,50,0.00,,,0.00,Wunderground v.1.15,2013-04-06 20:27:00,
2013-04-06 16:32:00,66.0,47.3,30.17,ESE,105,5.0,12.0,51,0.00,,,0.00,Wunderground v.1.15,2013-04-06 20:32:00,
2013-04-06 16:37:00,65.6,47.0,30.17,ENE,75,3.0,12.0,51,0.00,,,0.00,Wunderground v.1.15,2013-04-06 20:37:00,
2013-04-06 16:42:00,65.5,46.9,30.17,South,177,8.0,10.0,51,0.00,,,0.00,Wunderground v.1.15,2013-04-06 20:42:00,
2013-04-06 16:48:00,65.2,46.6,30.17,ESE,119,3.0,10.0,51,0.00,,,0.00,Wunderground v.1.15,2013-04-06 20:48:00,
2013-04-06 16:53:00,65.0,46.9,30.17,ESE,111,2.0,8.0,52,0.00,,,0.00,Wunderground v.1.15,2013-04-06 20:53:00,
2013-04-06 16:58:00,64.8,46.8,30.17,SE,139,2.0,8.0,52,0.00,,,0.00,Wunderground v.1.15,2013-04-06 20:58:00,
2013-04-06 17:03:00,64.7,47.2,30.17,SSE,159,2.0,10.0,53,0.00,,,0.00,Wunderground v.1.15,2013-04-06 21:03:00,
2013-04-06 17:08:00,64.5,46.5,30.17,South,181,8.0,10.0,52,0.00,,,0.00,Wunderground v.1.15,2013-04-06 21:08:00,
2013-04-06 17:13:00,64.2,46.2,30.17,South,174,2.0,7.0,52,0.00,,,0.00,Wunderground v.1.15,2013-04-06 21:13:00,
2013-04-06 17:18:00,64.0,45.5,30.17,ESE,116,4.0,16.0,51,0.00,,,0.00,Wunderground v.1.15,2013-04-06 21:18:00,
2013-04-06 17:23:00,63.9,46.9,30.17,SE,128,4.0,7.0,54,0.00,,,0.00,Wunderground v.1.15,2013-04-06 21:23:00,
2013-04-06 17:29:00,63.9,47.4,30.17,ESE,118,2.0,13.0,55,0.00,,,0.00,Wunderground v.1.15,2013-04-06 21:29:00,
2013-04-06 17:34:00,63.7,48.2,30.18,SE,132,2.0,6.0,57,0.00,,,0.00,Wunderground v.1.15,2013-04-06 21:34:00,
2013-04-06 17:39:00,63.5,48.0,30.18,ESE,112,2.0,8.0,57,0.00,,,0.00,Wunderground v.1.15,2013-04-06 21:39:00,
2013-04-06 17:44:00,63.7,49.1,30.18,ESE,111,2.0,5.0,59,0.00,,,0.00,Wunderground v.1.15,2013-04-06 21:44:00,
2013-04-06 17:50:00,63.5,49.8,30.18,SE,132,2.0,2.0,61,0.00,,,0.00,Wunderground v.1.15,2013-04-06 21:50:00,
2013-04-06 17:55:00,63.5,51.5,30.18,ESE,111,1.0,6.0,65,0.00,,,0.00,Wunderground v.1.15,2013-04-06 21:55:00,
2013-04-06 18:00:00,63.1,50.7,30.19,NW,318,2.0,3.0,64,0.00,,,0.00,Wunderground v.1.15,2013-04-06 22:00:00,
2013-04-06 18:05:00,62.4,50.5,30.19,East,97,3.0,8.0,65,0.00,,,0.00,Wunderground v.1.15,2013-04-06 22:05:00,
2013-04-06 18:10:00,62.1,51.4,30.19,SE,145,7.0,7.0,68,0.00,,,0.00,Wunderground v.1.15,2013-04-06 22:10:00,
2013-04-06 18:15:00,61.8,50.7,30.19,SE,133,3.0,7.0,67,0.00,,,0.00,Wunderground v.1.15,2013-04-06 22:15:00,
2013-04-06 18:20:00,61.6,50.1,30.19,ESE,118,4.0,7.0,66,0.00,,,0.00,Wunderground v.1.15,2013-04-06 22:20:00,
2013-04-06 18:25:00,61.5,50.4,30.19,South,176,5.0,7.0,67,0.00,,,0.00,Wunderground v.1.15,2013-04-06 22:25:00,
2013-04-06 18:30:00,61.3,50.6,30.19,ESE,115,6.0,6.0,68,0.00,,,0.00,Wunderground v.1.15,2013-04-06 22:30:00,
2013-04-06 18:35:00,61.0,50.8,30.19,East,94,3.0,8.0,69,0.00,,,0.00,Wunderground v.1.15,2013-04-06 22:35:00,
2013-04-06 18:40:00,60.9,51.0,30.19,ESE,102,1.0,2.0,70,0.00,,,0.00,Wunderground v.1.15,2013-04-06 22:40:00,
2013-04-06 18:45:00,60.7,51.2,30.20,ESE,106,2.0,5.0,71,0.00,,,0.00,Wunderground v.1.15,2013-04-06 22:45:00,
2013-04-06 18:50:00,60.7,51.6,30.20,ESE,123,3.0,3.0,72,0.00,,,0.00,Wunderground v.1.15,2013-04-06 22:50:00,
2013-04-06 18:55:00,60.5,51.8,30.20,ESE,112,11.0,11.0,73,0.00,,,0.00,Wunderground v.1.15,2013-04-06 22:55:00,
2013-04-06 19:00:00,60.4,51.7,30.20,SE,128,2.0,3.0,73,0.00,,,0.00,Wunderground v.1.15,2013-04-06 23:00:00,
2013-04-06 19:06:00,60.4,52.1,30.20,SSE,164,2.0,4.0,74,0.00,,,0.00,Wunderground v.1.15,2013-04-06 23:06:00,
2013-04-06 19:11:00,60.2,51.9,30.20,ESE,123,2.0,6.0,74,0.00,,,0.00,Wunderground v.1.15,2013-04-06 23:11:00,
2013-04-06 19:16:00,59.9,51.6,30.20,ESE,115,0.0,6.0,74,0.00,,,0.00,Wunderground v.1.15,2013-04-06 23:16:00,
2013-04-06 19:21:00,59.8,51.9,30.20,SSE,166,3.0,5.0,75,0.00,,,0.00,Wunderground v.1.15,2013-04-06 23:21:00,
2013-04-06 19:26:00,59.6,51.7,30.20,SSE,161,0.0,5.0,75,0.00,,,0.00,Wunderground v.1.15,2013-04-06 23:26:00,
2013-04-06 19:31:00,59.5,51.6,30.19,ESE,105,3.0,3.0,75,0.00,,,0.00,Wunderground v.1.15,2013-04-06 23:31:00,
2013-04-06 19:37:00,59.3,51.7,30.19,South,173,2.0,3.0,76,0.00,,,0.00,Wunderground v.1.15,2013-04-06 23:37:00,
2013-04-06 19:42:00,59.2,51.6,30.19,ESE,102,4.0,6.0,76,0.00,,,0.00,Wunderground v.1.15,2013-04-06 23:42:00,
2013-04-06 19:47:00,59.0,51.4,30.20,SE,136,1.0,7.0,76,0.00,,,0.00,Wunderground v.1.15,2013-04-06 23:47:00,
2013-04-06 19:52:00,58.9,51.0,30.20,SSE,167,1.0,7.0,75,0.00,,,0.00,Wunderground v.1.15,2013-04-06 23:52:00,
2013-04-06 19:57:00,58.7,51.2,30.20,East,95,5.0,7.0,76,0.00,,,0.00,Wunderground v.1.15,2013-04-06 23:57:00,
2013-04-06 20:02:00,58.7,51.2,30.20,SSE,152,2.0,7.0,76,0.00,,,0.00,Wunderground v.1.15,2013-04-07 00:02:00,
2013-04-06 20:07:00,58.7,51.5,30.20,SSE,161,3.0,7.0,77,0.00,,,0.00,Wunderground v.1.15,2013-04-07 00:07:00,
2013-04-06 20:12:00,58.6,51.4,30.20,SSE,153,1.0,6.0,77,0.00,,,0.00,Wunderground v.1.15,2013-04-07 00:12:00,
2013-04-06 20:17:00,58.4,51.6,30.20,East,80,3.0,6.0,78,0.00,,,0.00,Wunderground v.1.15,2013-04-07 00:17:00,
2013-04-06 20:22:00,58.4,51.6,30.20,ESE,102,0.0,3.0,78,0.00,,,0.00,Wunderground v.1.15,2013-04-07 00:22:00,
2013-04-06 20:27:00,58.4,51.9,30.20,SSE,157,1.0,5.0,79,0.00,,,0.00,Wunderground v.1.15,2013-04-07 00:27:00,
2013-04-06 20:32:00,58.3,51.8,30.21,SSE,157,0.0,1.0,79,0.00,,,0.00,Wunderground v.1.15,2013-04-07 00:32:00,
2013-04-06 20:38:00,58.1,51.6,30.21,ESE,123,1.0,5.0,79,0.00,,,0.00,Wunderground v.1.15,2013-04-07 00:38:00,
2013-04-06 20:43:00,58.1,51.6,30.21,ESE,119,1.0,3.0,79,0.00,,,0.00,Wunderground v.1.15,2013-04-07 00:43:00,
2013-04-06 20:49:00,58.1,51.6,30.22,SE,146,0.0,3.0,79,0.00,,,0.00,Wunderground v.1.15,2013-04-07 00:49:00,
2013-04-06 20:54:00,58.0,51.9,30.22,East,101,2.0,3.0,80,0.00,,,0.00,Wunderground v.1.15,2013-04-07 00:54:00,
2013-04-06 20:59:00,58.0,51.9,30.22,ESE,121,1.0,3.0,80,0.00,,,0.00,Wunderground v.1.15,2013-04-07 00:59:00,
2013-04-06 21:04:00,58.0,51.9,30.22,East,98,0.0,1.0,80,0.00,,,0.00,Wunderground v.1.15,2013-04-07 01:04:00,
2013-04-06 21:09:00,58.0,51.9,30.22,East,94,0.0,4.0,80,0.00,,,0.00,Wunderground v.1.15,2013-04-07 01:09:00,
2013-04-06 21:14:00,58.0,52.2,30.23,SE,139,1.0,2.0,81,0.00,,,0.00,Wunderground v.1.15,2013-04-07 01:14:00,
2013-04-06 21:20:00,58.0,52.2,30.23,ESE,121,0.0,0.0,81,0.00,,,0.00,Wunderground v.1.15,2013-04-07 01:20:00,
2013-04-06 21:25:00,58.0,52.2,30.23,South,177,0.0,5.0,81,0.00,,,0.00,Wunderground v.1.15,2013-04-07 01:25:00,
2013-04-06 21:30:00,57.8,52.3,30.23,SE,128,0.0,1.0,82,0.00,,,0.00,Wunderground v.1.15,2013-04-07 01:30:00,
2013-04-06 21:35:00,57.8,52.3,30.23,NNE,33,0.0,2.0,82,0.00,,,0.00,Wunderground v.1.15,2013-04-07 01:35:00,
2013-04-06 21:40:00,57.8,52.3,30.23,ENE,77,0.0,2.0,82,0.00,,,0.00,Wunderground v.1.15,2013-04-07 01:40:00,
2013-04-06 21:45:00,57.8,52.7,30.23,SSE,147,0.0,3.0,83,0.00,,,0.00,Wunderground v.1.15,2013-04-07 01:45:00,
2013-04-06 21:50:00,57.8,52.7,30.23,SE,135,2.0,2.0,83,0.00,,,0.00,Wunderground v.1.15,2013-04-07 01:50:00,
2013-04-06 21:55:00,57.8,53.0,30.23,East,101,1.0,3.0,84,0.00,,,0.00,Wunderground v.1.15,2013-04-07 01:55:00,
2013-04-06 22:00:00,57.8,53.0,30.23,ESE,111,1.0,1.0,84,0.00,,,0.00,Wunderground v.1.15,2013-04-07 02:00:00,
2013-04-06 22:05:00,57.6,53.1,30.23,SE,145,0.0,2.0,85,0.00,,,0.00,Wunderground v.1.15,2013-04-07 02:05:00,
2013-04-06 22:11:00,57.6,53.1,30.23,East,98,1.0,1.0,85,0.00,,,0.00,Wunderground v.1.15,2013-04-07 02:11:00,
2013-04-06 22:16:00,57.6,53.1,30.23,East,98,1.0,5.0,85,0.00,,,0.00,Wunderground v.1.15,2013-04-07 02:16:00,
2013-04-06 22:21:00,57.6,53.4,30.23,SE,142,0.0,1.0,86,0.00,,,0.00,Wunderground v.1.15,2013-04-07 02:21:00,
2013-04-06 22:26:00,57.6,53.4,30.23,SE,125,1.0,5.0,86,0.00,,,0.00,Wunderground v.1.15,2013-04-07 02:26:00,
2013-04-06 22:31:00,57.6,53.4,30.23,SE,130,2.0,4.0,86,0.00,,,0.00,Wunderground v.1.15,2013-04-07 02:31:00,
2013-04-06 22:36:00,57.6,53.8,30.23,SE,139,2.0,6.0,87,0.00,,,0.00,Wunderground v.1.15,2013-04-07 02:36:00,
2013-04-06 22:41:00,57.6,53.8,30.23,ESE,102,0.0,2.0,87,0.00,,,0.00,Wunderground v.1.15,2013-04-07 02:41:00,
2013-04-06 22:46:00,57.6,53.8,30.23,ESE,123,1.0,5.0,87,0.00,,,0.00,Wunderground v.1.15,2013-04-07 02:46:00,
2013-04-06 22:51:00,57.6,54.1,30.23,SSE,161,0.0,2.0,88,0.00,,,0.00,Wunderground v.1.15,2013-04-07 02:51:00,
2013-04-06 22:57:00,57.6,54.1,30.23,East,91,0.0,5.0,88,0.00,,,0.00,Wunderground v.1.15,2013-04-07 02:57:00,
2013-04-06 23:02:00,57.6,54.1,30.23,East,91,0.0,2.0,88,0.00,,,0.00,Wunderground v.1.15,2013-04-07 03:02:00,
2013-04-06 23:07:00,57.6,54.1,30.23,East,91,0.0,2.0,88,0.00,,,0.00,Wunderground v.1.15,2013-04-07 03:07:00,
2013-04-06 23:12:00,57.6,54.1,30.23,NNE,20,0.0,0.0,88,0.00,,,0.00,Wunderground v.1.15,2013-04-07 03:12:00,
2013-04-06 23:17:00,57.6,54.1,30.24,NNE,20,0.0,1.0,88,0.00,,,0.00,Wunderground v.1.15,2013-04-07 03:17:00,
2013-04-06 23:22:00,57.5,54.3,30.24,NNE,22,0.0,0.0,89,0.00,,,0.00,Wunderground v.1.15,2013-04-07 03:22:00,
2013-04-06 23:27:00,57.5,54.3,30.24,NNE,22,0.0,1.0,89,0.00,,,0.00,Wunderground v.1.15,2013-04-07 03:27:00,
2013-04-06 23:32:00,57.3,54.1,30.23,NNE,22,0.0,0.0,89,0.00,,,0.00,Wunderground v.1.15,2013-04-07 03:32:00,
2013-04-06 23:37:00,57.2,54.0,30.23,NNE,22,0.0,0.0,89,0.00,,,0.00,Wunderground v.1.15,2013-04-07 03:37:00,
2013-04-06 23:42:00,57.0,53.8,30.23,East,94,0.0,0.0,89,0.00,,,0.00,Wunderground v.1.15,2013-04-07 03:42:00,
2013-04-06 23:47:00,57.0,53.8,30.23,East,94,0.0,0.0,89,0.00,,,0.00,Wunderground v.1.15,2013-04-07 03:47:00,
2013-04-06 23:52:00,56.9,53.7,30.23,East,94,0.0,0.0,89,0.00,,,0.00,Wunderground v.1.15,2013-04-07 03:52:00,
2013-04-06 23:58:00,56.7,53.5,30.23,East,94,0.0,0.0,89,0.00,,,0.00,Wunderground v.1.15,2013-04-07 03:58:00,